Aegean Orion — SVA2487 — position and weather

sailwx.info

Track history (hours):
 
Tides and Currents Weather Stations Pressure Air Temp Water Temp Dewpoint Dewpoint Depression Visibility Wind Speed Wind Dir Waves Ship Positions

Aegean Orion

Last reported at 2016-Dec-06 15:08 UTC. Time now 2016-Dec-07 16:25 UTC.
Position N 38°02' E 023°32'.

; draft 2.4 m.

Type: Ship. MMSI: 239550200.

Date/timePositionNaut miles runAvg speedWind from/ knotsBaromVisibWave heightAir tempDewpointWater temp
2016-Dec-06 15:08N 38°02' E 023°32'3 5.3
2016-Dec-06 14:33N 37°59' E 023°33'5 5.0
2016-Dec-06 13:32N 37°57' E 023°38'0 0.1
2016-Dec-06 12:33N 37°57' E 023°38'0 0.0
2016-Dec-06 11:33N 37°57' E 023°38'1 1.2
2016-Dec-06 10:33N 37°56' E 023°37'5 5.2
2016-Dec-06 09:33N 38°01' E 023°35'1 0.9
2016-Dec-06 08:33N 38°02' E 023°36'0 0.0
2016-Dec-06 07:33N 38°02' E 023°36'0 0.4
2016-Dec-06 06:33N 38°02' E 023°35'0 0.0
2016-Dec-06 05:33N 38°02' E 023°35'  
2016-Dec-03 15:25N 38°02' E 023°32'4 4.2
2016-Dec-03 14:33N 37°59' E 023°33'4 4.3
2016-Dec-03 13:34N 37°56' E 023°37'0 0.1
2016-Dec-03 12:34N 37°56' E 023°37'0 0.0
2016-Dec-03 11:34N 37°56' E 023°37'3 3.1
2016-Dec-03 10:33N 37°57' E 023°34'5 5.1
2016-Dec-03 09:33N 38°02' E 023°32'0 0.0
2016-Dec-03 07:15N 38°02' E 023°32'0 0.0
2016-Dec-03 06:33N 38°02' E 023°32'0 0.0
2016-Dec-03 05:33N 38°02' E 023°32'0 0.0
2016-Dec-02 11:25N 38°02' E 023°32'0 0.0
2016-Dec-02 10:33N 38°02' E 023°32'0 0.0
2016-Dec-02 09:33N 38°02' E 023°32'3 2.7
2016-Dec-02 08:33N 38°02' E 023°35'0 0.0
2016-Dec-02 07:33N 38°02' E 023°35'0 0.0
2016-Dec-02 06:33N 38°02' E 023°35'4 4.0
2016-Dec-02 05:33N 37°58' E 023°33'2 1.6
2016-Dec-02 04:33N 37°57' E 023°34'0 0.0
2016-Dec-02 03:33N 37°57' E 023°34'0 0.0
2016-Dec-02 02:33N 37°57' E 023°34'0 0.0
2016-Dec-02 01:33N 37°57' E 023°34'0 0.1
2016-Dec-02 00:33N 37°57' E 023°34'3 1.2
2016-Dec-01 22:03N 37°57' E 023°38'2 3.2
2016-Dec-01 21:33N 37°57' E 023°36'2 1.6
2016-Dec-01 20:33N 37°57' E 023°34'0 0.0
2016-Dec-01 19:33N 37°57' E 023°34'0 0.0
2016-Dec-01 18:33N 37°57' E 023°34'0 0.0
2016-Dec-01 17:33N 37°57' E 023°34'0 0.0
2016-Dec-01 16:33N 37°57' E 023°34'0 0.0
2016-Dec-01 15:33N 37°57' E 023°34'2 0.6
2016-Dec-01 12:33N 37°57' E 023°36'2 1.7
2016-Dec-01 11:34N 37°57' E 023°34'0 0.4
2016-Dec-01 10:33N 37°57' E 023°34'5 4.8
2016-Dec-01 09:33N 38°02' E 023°35'0 0.0
2016-Dec-01 08:33N 38°02' E 023°35'0 0.0
2016-Dec-01 07:33N 38°02' E 023°35'0 0.0
2016-Dec-01 06:33N 38°02' E 023°35'3 2.8
2016-Dec-01 05:34N 38°02' E 023°32'0 0.0
2016-Nov-29 11:19N 38°02' E 023°32'5 6.7
2016-Nov-29 10:33N 37°57' E 023°34'3 3.0
2016-Nov-29 09:33N 37°56' E 023°37'0 0.1
2016-Nov-29 08:33N 37°56' E 023°37'3 2.9
2016-Nov-29 07:33N 37°57' E 023°34'0 0.0
2016-Nov-29 06:33N 37°57' E 023°34'0 0.0
2016-Nov-29 05:34N 37°57' E 023°34'0 0.0
2016-Nov-29 04:34N 37°57' E 023°34'0 0.0
2016-Nov-29 03:33N 37°57' E 023°34'0 0.0
2016-Nov-29 02:33N 37°57' E 023°34'0 0.0
2016-Nov-29 01:33N 37°57' E 023°34'0 0.0
2016-Nov-29 00:33N 37°57' E 023°34'0 0.0
2016-Nov-28 23:33N 37°57' E 023°34'0 0.0
2016-Nov-28 22:33N 37°57' E 023°34'0 0.0
2016-Nov-28 21:33N 37°57' E 023°34'0 0.0
2016-Nov-28 20:33N 37°57' E 023°34'4 3.5
2016-Nov-28 19:33N 37°57' E 023°38'0 0.0
2016-Nov-28 18:33N 37°57' E 023°38'2 2.3
2016-Nov-28 17:33N 37°57' E 023°36'1 1.2
2016-Nov-28 16:33N 37°57' E 023°34'0 0.0
2016-Nov-28 15:33N 37°57' E 023°34'3 3.5
2016-Nov-28 14:33N 37°57' E 023°38'0 0.0
2016-Nov-28 13:33N 37°57' E 023°38'4 3.6
2016-Nov-28 12:33N 37°57' E 023°34'0 0.1
2016-Nov-28 11:34N 37°57' E 023°34'0 0.0
2016-Nov-28 10:33N 37°57' E 023°34'2 2.4
2016-Nov-28 09:33N 37°60' E 023°33'3 3.1
2016-Nov-28 08:33N 38°02' E 023°35'0 0.0
2016-Nov-28 07:33N 38°02' E 023°35'0 0.0
2016-Nov-28 06:33N 38°02' E 023°35'0 0.0
2016-Nov-28 05:33N 38°02' E 023°35'  
Track history (hours):
 
Tides and Currents Weather Stations Pressure Air Temp Water Temp Dewpoint Dewpoint Depression Visibility Wind Speed Wind Dir Waves Ship Positions

Aegean Orion

Last reported at 2016-Dec-06 15:08 UTC. Time now 2016-Dec-07 16:25 UTC.
Position N 38°02' E 023°32'.

; draft 2.4 m.

Type: Ship. MMSI: 239550200.

Date/timePositionNaut miles runAvg speedWind from/ knotsBaromVisibWave heightAir tempDewpointWater temp
2016-Dec-06 15:08N 38°02' E 023°32'3 5.3
2016-Dec-06 14:33N 37°59' E 023°33'5 5.0
2016-Dec-06 13:32N 37°57' E 023°38'0 0.1
2016-Dec-06 12:33N 37°57' E 023°38'0 0.0
2016-Dec-06 11:33N 37°57' E 023°38'1 1.2
2016-Dec-06 10:33N 37°56' E 023°37'5 5.2
2016-Dec-06 09:33N 38°01' E 023°35'1 0.9
2016-Dec-06 08:33N 38°02' E 023°36'0 0.0
2016-Dec-06 07:33N 38°02' E 023°36'0 0.4
2016-Dec-06 06:33N 38°02' E 023°35'0 0.0
2016-Dec-06 05:33N 38°02' E 023°35'  
2016-Dec-03 15:25N 38°02' E 023°32'4 4.2
2016-Dec-03 14:33N 37°59' E 023°33'4 4.3
2016-Dec-03 13:34N 37°56' E 023°37'0 0.1
2016-Dec-03 12:34N 37°56' E 023°37'0 0.0
2016-Dec-03 11:34N 37°56' E 023°37'3 3.1
2016-Dec-03 10:33N 37°57' E 023°34'5 5.1
2016-Dec-03 09:33N 38°02' E 023°32'0 0.0
2016-Dec-03 07:15N 38°02' E 023°32'0 0.0
2016-Dec-03 06:33N 38°02' E 023°32'0 0.0
2016-Dec-03 05:33N 38°02' E 023°32'0 0.0
2016-Dec-02 11:25N 38°02' E 023°32'0 0.0
2016-Dec-02 10:33N 38°02' E 023°32'0 0.0
2016-Dec-02 09:33N 38°02' E 023°32'3 2.7
2016-Dec-02 08:33N 38°02' E 023°35'0 0.0
2016-Dec-02 07:33N 38°02' E 023°35'0 0.0
2016-Dec-02 06:33N 38°02' E 023°35'4 4.0
2016-Dec-02 05:33N 37°58' E 023°33'2 1.6
2016-Dec-02 04:33N 37°57' E 023°34'0 0.0
2016-Dec-02 03:33N 37°57' E 023°34'0 0.0
2016-Dec-02 02:33N 37°57' E 023°34'0 0.0
2016-Dec-02 01:33N 37°57' E 023°34'0 0.1
2016-Dec-02 00:33N 37°57' E 023°34'3 1.2
2016-Dec-01 22:03N 37°57' E 023°38'2 3.2
2016-Dec-01 21:33N 37°57' E 023°36'2 1.6
2016-Dec-01 20:33N 37°57' E 023°34'0 0.0
2016-Dec-01 19:33N 37°57' E 023°34'0 0.0
2016-Dec-01 18:33N 37°57' E 023°34'0 0.0
2016-Dec-01 17:33N 37°57' E 023°34'0 0.0
2016-Dec-01 16:33N 37°57' E 023°34'0 0.0
2016-Dec-01 15:33N 37°57' E 023°34'2 0.6
2016-Dec-01 12:33N 37°57' E 023°36'2 1.7
2016-Dec-01 11:34N 37°57' E 023°34'0 0.4
2016-Dec-01 10:33N 37°57' E 023°34'5 4.8
2016-Dec-01 09:33N 38°02' E 023°35'0 0.0
2016-Dec-01 08:33N 38°02' E 023°35'0 0.0
2016-Dec-01 07:33N 38°02' E 023°35'0 0.0
2016-Dec-01 06:33N 38°02' E 023°35'3 2.8
2016-Dec-01 05:34N 38°02' E 023°32'0 0.0
2016-Nov-29 11:19N 38°02' E 023°32'5 6.7
2016-Nov-29 10:33N 37°57' E 023°34'3 3.0
2016-Nov-29 09:33N 37°56' E 023°37'0 0.1
2016-Nov-29 08:33N 37°56' E 023°37'3 2.9
2016-Nov-29 07:33N 37°57' E 023°34'0 0.0
2016-Nov-29 06:33N 37°57' E 023°34'0 0.0
2016-Nov-29 05:34N 37°57' E 023°34'0 0.0
2016-Nov-29 04:34N 37°57' E 023°34'0 0.0
2016-Nov-29 03:33N 37°57' E 023°34'0 0.0
2016-Nov-29 02:33N 37°57' E 023°34'0 0.0
2016-Nov-29 01:33N 37°57' E 023°34'0 0.0
2016-Nov-29 00:33N 37°57' E 023°34'0 0.0
2016-Nov-28 23:33N 37°57' E 023°34'0 0.0
2016-Nov-28 22:33N 37°57' E 023°34'0 0.0
2016-Nov-28 21:33N 37°57' E 023°34'0 0.0
2016-Nov-28 20:33N 37°57' E 023°34'4 3.5
2016-Nov-28 19:33N 37°57' E 023°38'0 0.0
2016-Nov-28 18:33N 37°57' E 023°38'2 2.3
2016-Nov-28 17:33N 37°57' E 023°36'1 1.2
2016-Nov-28 16:33N 37°57' E 023°34'0 0.0
2016-Nov-28 15:33N 37°57' E 023°34'3 3.5
2016-Nov-28 14:33N 37°57' E 023°38'0 0.0
2016-Nov-28 13:33N 37°57' E 023°38'4 3.6
2016-Nov-28 12:33N 37°57' E 023°34'0 0.1
2016-Nov-28 11:34N 37°57' E 023°34'0 0.0
2016-Nov-28 10:33N 37°57' E 023°34'2 2.4
2016-Nov-28 09:33N 37°60' E 023°33'3 3.1
2016-Nov-28 08:33N 38°02' E 023°35'0 0.0
2016-Nov-28 07:33N 38°02' E 023°35'0 0.0
2016-Nov-28 06:33N 38°02' E 023°35'0 0.0
2016-Nov-28 05:33N 38°02' E 023°35'  

Dump ship's entire track history